Tiempo atmosférico en la estación meteorológica de Puerto De La Cruz, Santa Cruz de Tenerife (25 m.)



Fecha
DESCASC
Temp. máxima en grados centígrados (hora)
DESCASC
Temp. mínima en grados centígrados (hora)
DESCASC
Temp. media en grados centígrados
DESCASC
Racha de viento máxima en m/sg (hora)
DESCASC
Velocidad máxima media en intervalos de 10 minutos(hora)
DESCASC
Precipitaciones diarias en mm
DESCASC
Precipitaciones de 00:00 a 06:00 en mm
DESCASC
Precipitaciones de 06:00 a 12:00 en mm
DESCASC
Precipitaciones de 12:00 a 18:00 en mm
DESCASC
Precipitaciones de 18:00 a 24:00 en mm
DESCASC
17-09-2020 26.1 (13:00) 22.7 (20:10) 24.4 4.44 (13:20) 3.61 (13:30) 0 0 0 0 0
15-09-2020 26.9 (16:20) 23.2 (07:30) 25.1 8.89 (14:00) 6.39 (14:00) 0 0 0 0 0
14-09-2020 27.7 (14:50) 21.1 (06:10) 24.4 6.94 (14:30) 5.28 (14:30) 0 0 0 0 0
13-09-2020 28.2 (16:00) 21.4 (00:00) 24.8 3.89 (12:00) 2.22 (11:50) 0 0 0 0 0
12-09-2020 28.4 (15:10) 21.8 (08:10) 25.1 4.72 (14:00) 3.61 (14:00) 0.6 0 0 0 0.6
11-09-2020 28.2 (15:50) 21.6 (00:00) 24.9 5.56 (18:00) 4.17 (17:30) 0 0 0 0 0
10-09-2020 26.9 (16:20) 22.1 (00:00) 24.5 7.22 (16:10) 5.83 (17:10) 0 0 0 0 0
09-09-2020 28.3 (16:10) 21.7 (07:00) 25 7.5 (22:40) 5 (22:00) 0 0 0 0 0
08-09-2020 28.1 (15:00) 23.1 (00:00) 25.6 6.39 (12:50) 5 (17:10) 0 0 0 0 0
07-09-2020 27.3 (16:20) 22.8 (07:30) 25 8.33 (13:40) 6.39 (14:30) 0.2 0.2 0 0 0
06-09-2020 28.3 (15:20) 20.2 (00:00) 24.3 5.28 (22:50) 4.17 (23:00) 0 0 0 0 0
05-09-2020 26.5 (14:40) 22.9 (00:00) 24.7 3.61 (00:40) 2.5 (00:30) 0 0 0 0 0
04-09-2020 27.8 (16:40) 20.6 (00:00) 24.2 6.39 (12:20) 5 (12:50) 0 0 0 0 0
03-09-2020 27.4 (15:10) 20.2 (00:00) 23.8 8.89 (14:30) 6.39 (13:50) 0 0 0 0 0
02-09-2020 27.6 (15:50) 20.8 (00:00) 24.2 6.94 (16:50) 5.28 (17:00) 0 0 0 0 0
01-09-2020 27.9 (17:50) 21.3 (00:00) 24.6 5 (12:20) 3.89 (12:20) 0 0 0 0 0
31-08-2020 25.9 (19:20) 20.6 (00:00) 23.3 10.28 (16:40) 4.72 (12:10) 0 0 0 0 0
30-08-2020 25 (13:30) 20.1 (00:00) 22.6 13.61 (17:40) 7.22 (05:20) 0.6 0.1 0.5 0 0
29-08-2020 28.4 (13:40) 21.1 (00:00) 24.8 10 (12:00) 6.67 (12:00) 0 0 0 0 0
28-08-2020 27.3 (15:20) 22.6 (00:00) 24.9 9.17 (15:30) 6.11 (15:30) 0 0 0 0 0
27-08-2020 29.6 (15:10) 23.5 (00:00) 26.6 5 (09:20) 3.06 (09:20) 0 0 0 0 0
26-08-2020 27.7 (17:20) 22.7 (00:00) 25.2 9.17 (13:20) 4.44 (13:30) 0 0 0 0 0
25-08-2020 26.3 (12:20) 21.5 (00:00) 23.9 6.11 (00:20) 4.72 (12:30) 0 0 0 0 0
24-08-2020 26.7 (14:20) 21.2 (06:40) 24 10.83 (12:20) 6.39 (13:40) 0 0 0 0 0
23-08-2020 27 (15:20) 21.5 (00:00) 24.3 7.22 (14:50) 5.56 (13:00) 0 0 0 0 0
22-08-2020 28.2 (15:20) 22.3 (00:00) 25.3 7.78 (17:10) 6.11 (17:30) 0.1 0 0.1 0 0
21-08-2020 27.7 (16:00) 19.9 (07:30) 23.8 7.5 (23:59) 5.83 (14:10) 0 0 0 0 0

Gráficas

Temp. máximas Temp. mínimas Temp. medias Precipitaciones Rachas de viento máximas Velocidades máximas media en intervalos de 10 minutos

Datos horarios

Fecha y hora oficial Temperatura (ºC) Velocidad del viento (km/h) Dirección del viento Racha (km/h) Dirección de racha Precipitación (mm) Presión (hPa) Tendencia (hPa) Humedad (%)
2020-09-19 23:00:00 23 0 Calma 14 Este 0 1016 1.2 76
2020-09-19 22:00:00 23.3 12 Nordeste 26 Nordeste 0 1015.6 1.1 77
2020-09-19 21:00:00 23.4 21 Nordeste 33 Nordeste 0 1014.5 0.3 78
2020-09-19 20:00:00 23.6 20 Nordeste 38 Nordeste 0 1014.8 0.7 75
2020-09-19 19:00:00 24.2 27 Nordeste 36 Nordeste 0 1014.5 0.3 71
2020-09-19 18:00:00 25.5 24 Nordeste 35 Nordeste 0 1014.2 -0.4 65
2020-09-19 17:00:00 26 24 Nordeste 33 Nordeste 0 1014.1 -1.2 64
2020-09-19 16:00:00 26.4 23 Nordeste 33 Nordeste 0 1014.2 -- 64
2020-09-19 15:00:00 26.7 21 Nordeste 31 Nordeste 0 1014.6 -- 60
2020-09-19 14:00:00 25.9 22 Nordeste 35 Norte 0 1015.3 -- 64
2020-09-19 13:00:00 26.1 24 Nordeste 36 Nordeste 0 1015.6 -- 62
2020-09-19 12:00:00 26.1 5 Este 13 Nordeste 0 1015.6 -- 57
2020-09-19 11:00:00 25.1 8 Nordeste 10 Nordeste 0 1015.6 -- 60
2020-09-19 10:00:00 23.5 2 Norte 5 Sur 0 1015.6 -- 65
2020-09-19 09:00:00 22.3 0 Calma 8 Sur 0 1015.7 -- 68
2020-09-19 08:00:00 20.7 5 Sur 11 Sur 0 1015.8 -- 71
2020-09-19 07:00:00 20.5 6 Sur 16 Sudeste 0 1015.4 -- 70
2020-09-19 06:00:00 20.8 6 Sudeste 16 Sudeste 0 1015 -- 70
2020-09-19 05:00:00 21 6 Sur 13 Sur 0 1015 -- 69
2020-09-19 04:00:00 21 5 Sur 14 Sudeste 0 1015.2 -- 68
2020-09-19 03:00:00 21 6 Sur 14 Sur 0 1015.4 -- 68
2020-09-19 02:00:00 21.2 7 Sur 12 Sur 0 1015.7 -- 69
2020-09-19 01:00:00 21.9 5 Sur 12 Sur 0 1015.7 -- 67
2020-09-19 00:00:00 21.9 5 Sur 11 Sudeste 0 1016.2 -- 68
2020-09-18 23:00:00 22.2 4 Sur 13 Sur 0 1016.1 -- 67
2020-09-18 22:00:00 23.1 9 Nordeste 15 Nordeste 0 1015.8 -- 75
2020-09-18 21:00:00 23.4 10 Nordeste 13 Nordeste 0 1015.1 -- 74
2020-09-18 20:00:00 23.9 10 Nordeste 15 Nordeste 0 1014.7 -- 69
2020-09-18 19:00:00 24.5 12 Nordeste 16 Este 0 1014.3 -- 64
2020-09-18 18:00:00 25.1 12 Nordeste 17 Nordeste 0 1013.9 -- 62
2020-09-18 17:00:00 25.4 13 Nordeste 19 Nordeste 0 1013.9 -- 61
2020-09-18 16:00:00 25.6 12 Nordeste 18 Nordeste 0 1014 -- 61
2020-09-18 15:00:00 25.7 11 Nordeste 16 Nordeste 0 1014.3 -- 61
2020-09-18 14:00:00 26.1 11 Nordeste 15 Nordeste 0 1014.5 -- 60
2020-09-18 13:00:00 26.5 12 Nordeste 15 Nordeste 0 1014.9 -- 58
2020-09-18 12:00:00 26.3 9 Nordeste 13 Nordeste 0 1014.9 -- 59
2020-09-18 11:00:00 26.1 6 Nordeste 8 Este 0 1014.4 -- 56
2020-09-18 10:00:00 24.6 5 Nordeste 9 Sur 0 1014 -- 60
2020-09-18 09:00:00 22.2 4 Sur 10 Sur 0 1013.7 -- 66
2020-09-18 08:00:00 20.7 4 Sur 12 Sur 0 1013.6 -- 68
2020-09-18 07:00:00 21 5 Sur 15 Sur 0 1013.2 -- 66
2020-09-18 06:00:00 20.9 5 Sur 13 Sudeste 0 1012.6 -- 70
2020-09-18 05:00:00 21.3 5 Sur 11 Sur 0 1012.5 -- 79
2020-09-18 04:00:00 22 2 Sur 8 Sur 0 1012.7 -- 80
2020-09-18 03:00:00 22.4 0 Calma 0 Calma 0 1013 -- 79
2020-09-18 02:00:00 22.7 0 Calma 5 Sur 0 1013.4 -- 78
2020-09-18 01:00:00 22.9 0 Calma 6 Sudeste 0 1013.7 -- 78
2020-09-18 00:00:00 23 0 Calma 8 Norte 0 1014 -- 77
2020-09-17 23:00:00 23.1 0 Calma 5 Noroeste 0 1013.9 -- 78
2020-09-17 22:00:00 23.2 0 Calma 6 Sur 0 1013.2 -- 78
2020-09-17 21:00:00 23 0 Calma 6 Nordeste 0 1012.5 -- 79
2020-09-17 20:00:00 22.9 4 Norte 12 Norte 0 1012.7 -- 80
2020-09-17 19:00:00 23.5 5 Norte 10 Norte 0 1012.4 -- 75
2020-09-17 18:00:00 24.4 6 Nordeste 9 Norte 0 1011.9 -- 74
2020-09-17 17:00:00 24.4 4 Nordeste 15 Nordeste 0 1012.2 -- 74
2020-09-17 16:00:00 24.7 6 Nordeste 12 Nordeste 0 1012.1 -- 74
2020-09-17 15:00:00 24.5 6 Nordeste 13 Nordeste 0 1012.4 -- 77
2020-09-17 14:00:00 24.4 11 Nordeste 16 Nordeste 0 1013.4 -- 78
2020-09-17 13:00:00 25.6 6 Nordeste 10 Nordeste 0 1013.2 -- 76
2020-09-17 12:00:00 25.6 5 Nordeste 8 Nordeste 0 1013.4 -- 76
2020-09-17 11:00:00 24.3 5 Nordeste 10 Este 0 1013.3 -- 84
2020-09-17 10:00:00 23.6 5 Este 11 Norte 0 1013.3 -- 91
2020-09-17 09:00:00 23.3 7 Nordeste 13 Norte 0 1012.9 -- 93
2020-09-17 08:00:00 23.5 5 Nordeste 9 Nordeste 0 1011.7 -- 97
2020-09-17 07:00:00 23.4 5 Nordeste 12 Nordeste 0 1011.9 -- 96
2020-09-17 06:00:00 23.6 0 Calma 7 Nordeste 0 1011.8 -- 96
2020-09-17 05:00:00 23.4 0 Calma 4 Oeste 0 1012 -- 96
2020-09-17 04:00:00 23.7 0 Calma 8 Norte 0 1012.5 -- 97
2020-09-17 03:00:00 23.8 5 Este 10 Este 0 1012.3 -- 96
2020-09-17 02:00:00 23.8 3 Este 12 Noroeste 0 1014.2 -- 99
2020-09-17 01:00:00 24 8 Este 13 Este 0 1013.6 -- 98
2020-09-17 00:00:00 24.2 3 Este 9 Norte 0 1014.1 -- 98
2020-09-16 23:00:00 24.2 0 Calma 12 Nordeste 0 1014.9 -- 98
2020-09-16 22:00:00 24.2 2 Noroeste 8 Nordeste 0 1014.3 -- 98
2020-09-16 21:00:00 24.3 2 Norte 20 Noroeste 0 1013.5 -- 96
2020-09-16 20:00:00 24.8 0 Calma 13 Este 0 1012.4 -- 92
2020-09-16 19:00:00 25.3 8 Nordeste 11 Nordeste 0 1011.7 -- 89
2020-09-16 18:00:00 26.2 6 Nordeste 11 Nordeste 0 1012.5 -- 83
2020-09-16 17:00:00 26.2 5 Nordeste 14 Este 0 1012.6 -- 82
2020-09-16 16:00:00 27 9 Este 12 Este 0 1012.5 -- 73
2020-09-16 15:00:00 27.3 5 Este 18 Nordeste 0 1013 -- 69
2020-09-16 14:00:00 27.7 4 Noroeste 17 Noroeste 0 1013.8 -- 59
2020-09-16 13:00:00 26.9 8 Noroeste 18 Noroeste 0 1014 -- 60
2020-09-16 12:00:00 26.8 10 Nordeste 23 Este 0 1014 -- 59
2020-09-16 11:00:00 27 5 Este 14 Nordeste 0 1014.3 -- 57
2020-09-16 10:00:00 24.8 7 Este 19 Este 0 1014.1 -- 76
2020-09-16 09:00:00 23.9 9 Este 15 Nordeste 0 1014.6 -- 86
2020-09-16 08:00:00 23.6 6 Este 18 Nordeste 0 1014.9 -- 85
2020-09-16 07:00:00 23.7 9 Este 18 Nordeste 0 1014.5 -- 84
2020-09-16 06:00:00 23.6 6 Este 18 Nordeste 0 1014 -- 84
2020-09-16 05:00:00 23.8 4 Nordeste 17 Nordeste 0 1014.6 -- 81
2020-09-16 04:00:00 23.7 0 Calma 10 Sur 0 1014.8 -- 82
2020-09-16 03:00:00 23.6 0 Calma 23 Nordeste 0 1015.5 -- 86
2020-09-16 02:00:00 23.5 20 Este 27 Nordeste 0 1016.3 -- 90
2020-09-16 01:00:00 23.7 15 Nordeste 21 Nordeste 0 1016.8 -- 88
2020-09-16 00:00:00 23.9 15 Este 23 Nordeste 0 1016.4 -- 87
2020-09-15 23:00:00 23.7 18 Nordeste 29 Nordeste 0 1017.2 -- 88
2020-09-15 22:00:00 23.9 18 Nordeste 25 Nordeste 0 1016.7 -- 88
2020-09-15 21:00:00 24.2 8 Este 22 Este 0 1016.2 -- 86
2020-09-15 20:00:00 24.3 0 Calma 14 Sudeste 0 1016.1 -- 84
2020-09-15 19:00:00 24.2 9 Norte 30 Norte 0 1017.4 -- 84
2020-09-15 18:00:00 25.4 20 Nordeste 28 Nordeste 0 1015.3 -- 78
2020-09-15 17:00:00 26 20 Nordeste 32 Nordeste 0 1015.2 -- 74
2020-09-15 16:00:00 26.2 16 Este 26 Nordeste 0 1014.6 -- 73
2020-09-15 15:00:00 26.6 18 Nordeste 32 Nordeste 0 1015.7 -- 73
2020-09-15 14:00:00 26.1 23 Nordeste 32 Nordeste 0 1016.5 -- 73
2020-09-15 13:00:00 26.4 12 Nordeste 28 Nordeste 0 1016.9 -- 70
2020-09-15 12:00:00 25.7 19 Nordeste 28 Nordeste 0 1017.3 -- 77
2020-09-15 11:00:00 24.6 5 Nordeste 13 Nordeste 0 1016.8 -- 78
2020-09-15 10:00:00 24.4 2 Este 18 Nordeste 0 1016.4 -- 82
2020-09-15 09:00:00 23.8 6 Nordeste 19 Este 0 1017 -- 87
2020-09-15 08:00:00 23.3 9 Nordeste 16 Nordeste 0 1016.8 -- 88
2020-09-15 07:00:00 23.3 0 Calma 14 Nordeste 0 1016.7 -- 88
2020-09-15 06:00:00 23.4 8 Este 17 Nordeste 0 1016.7 -- 87
2020-09-15 05:00:00 23.5 9 Nordeste 13 Nordeste 0 1016.6 -- 88
2020-09-15 04:00:00 23.6 4 Nordeste 20 Norte 0 1017.1 -- 86
2020-09-15 03:00:00 23.4 6 Este 13 Este 0 1015 -- 86
2020-09-15 02:00:00 23.7 0 Calma 14 Norte 0 1017.2 -- 85
2020-09-15 01:00:00 23.8 0 Calma 5 Oeste 0 1018 -- 83
2020-09-15 00:00:00 23.8 0 Calma 9 Oeste 0 1018.3 -- 81
2020-09-14 23:00:00 23.8 5 Sudoeste 13 Oeste 0 1017.8 -- 81
2020-09-14 22:00:00 24 4 Sudoeste 15 Sudoeste 0 1017.1 -- 79
2020-09-14 21:00:00 24.1 4 Oeste 14 Oeste 0 1016.6 -- 78
2020-09-14 20:00:00 24.2 4 Oeste 20 Nordeste 0 1016.3 -- 76
2020-09-14 19:00:00 25.4 14 Nordeste 21 Nordeste 0 1015.8 -- 70
2020-09-14 18:00:00 26.9 16 Nordeste 23 Nordeste 0 1015.6 -- 65
2020-09-14 17:00:00 26.1 17 Nordeste 24 Nordeste 0 1015.5 -- 65
2020-09-14 16:00:00 27.4 18 Nordeste 22 Nordeste 0 1015.9 -- 63
2020-09-14 15:00:00 27.2 17 Nordeste 25 Nordeste 0 1016.2 -- 64
2020-09-14 14:00:00 27.3 17 Nordeste 21 Nordeste 0 1016.3 -- 65
2020-09-14 13:00:00 26.6 17 Nordeste 21 Nordeste 0 1016.8 -- 66
2020-09-14 12:00:00 26.3 14 Este 19 Nordeste 0 1017.3 -- 64
2020-09-14 11:00:00 25.1 5 Nordeste 10 Nordeste 0 1017.3 -- 64
2020-09-14 10:00:00 24.8 4 Nordeste 8 Sudeste 0 1016.8 -- 61
2020-09-14 09:00:00 22.8 6 Sudeste 10 Sur 0 1017 -- 62
2020-09-14 08:00:00 21.2 6 Sur 14 Sudeste 0 1016.8 -- 64
2020-09-14 07:00:00 21.2 5 Sur 11 Sur 0 1016.3 -- 67
2020-09-14 06:00:00 21.2 6 Sur 11 Sudeste 0 1016.1 -- 70
2020-09-14 05:00:00 21.5 6 Sur 11 Sur 0 1015.8 -- 72
2020-09-14 04:00:00 21.9 5 Sur 10 Sur 0 1015.7 -- 74
2020-09-14 03:00:00 22.2 4 Sur 8 Sur 0 1016.1 -- 76
2020-09-14 02:00:00 22.6 4 Sur 8 Sur 0 1016.6 -- 78
2020-09-14 01:00:00 23.7 4 Nordeste 7 Nordeste 0 1016.9 -- 85
2020-09-14 00:00:00 23.9 5 Nordeste 8 Nordeste 0 1017.1 -- 84
2020-09-13 23:00:00 24.3 3 Nordeste 8 Norte 0 1017 -- 82
2020-09-13 22:00:00 24.3 4 Nordeste 6 Nordeste 0 1016.2 -- 81
2020-09-13 21:00:00 24.6 5 Nordeste 7 Nordeste 0 1015.4 -- 78
2020-09-13 20:00:00 24.5 3 Nordeste 8 Nordeste 0 1014.9 -- 78
2020-09-13 19:00:00 25.1 3 Norte 10 Norte 0 1014.5 -- 74
2020-09-13 18:00:00 25.7 6 Norte 11 Nordeste 0 1014.2 -- 71
2020-09-13 17:00:00 26.2 6 Nordeste 12 Nordeste 0 1014 -- 64
2020-09-13 16:00:00 27.5 8 Nordeste 12 Nordeste 0 1013.9 -- 61
2020-09-13 15:00:00 25.8 5 Norte 12 Norte 0 1014.3 -- 69
2020-09-13 14:00:00 25 5 Nordeste 9 Norte 0 1014.7 -- 74
2020-09-13 13:00:00 25.1 3 Norte 12 Noroeste 0 1015.1 -- 74
2020-09-13 12:00:00 24.4 8 Noroeste 14 Noroeste 0 1015.4 -- 71
2020-09-13 11:00:00 23.5 6 Oeste 12 Noroeste 0 1014.7 -- 73
2020-09-13 10:00:00 23.9 0 Calma 5 Sur 0 1014.3 -- 71
2020-09-13 09:00:00 22 2 Sur 11 Sur 0 1014.5 -- 78
2020-09-13 08:00:00 21.4 6 Sur 10 Sur 0 1014.3 -- 80
2020-09-13 07:00:00 21.9 2 Sur 5 Sur 0 1014.1 -- 85
2020-09-13 06:00:00 22.5 0 Calma 4 Sur 0 1013.7 -- 85
2020-09-13 05:00:00 22.8 0 Calma 4 Sudeste 0 1013.5 -- 85
2020-09-13 04:00:00 23 0 Calma 5 Sur 0 1013.6 -- 85
2020-09-13 03:00:00 22.8 3 Sur 6 Sur 0 1014 -- 86
2020-09-13 02:00:00 22.9 0 Calma 5 Sudoeste 0 1013.8 -- 89
2020-09-13 01:00:00 23.1 2 Sur 6 Nordeste 0 1014 -- 88
2020-09-13 00:00:00 23.3 0 Calma 10 Nordeste 0.5 1014 -- 88
2020-09-12 23:00:00 23.5 3 Nordeste 14 Norte 0.1 1014.3 -- 85
2020-09-12 22:00:00 23.6 6 Norte 15 Nordeste 0 1014.3 -- 80
2020-09-12 21:00:00 23.9 8 Este 12 Este 0 1013.4 -- 76
2020-09-12 20:00:00 24.4 6 Nordeste 13 Este 0 1012.6 -- 72
2020-09-12 19:00:00 25.1 5 Nordeste 11 Nordeste 0 1012.7 -- 70
2020-09-12 18:00:00 25.1 6 Nordeste 10 Nordeste 0 1013 -- 70
2020-09-12 17:00:00 25.6 6 Nordeste 11 Norte 0 1012.7 -- 67
2020-09-12 16:00:00 25.1 6 Nordeste 13 Norte 0 1013 -- 65
2020-09-12 15:00:00 28.2 10 Nordeste 14 Nordeste 0 1011.9 -- 57
2020-09-12 14:00:00 27 13 Nordeste 17 Nordeste 0 1012.1 -- 61
2020-09-12 13:00:00 26.6 12 Nordeste 15 Nordeste 0 1013 -- 62
2020-09-12 12:00:00 26 8 Nordeste 12 Nordeste 0 1013.9 -- 67
2020-09-12 11:00:00 25.4 7 Nordeste 11 Este 0 1013.8 -- 70
2020-09-12 10:00:00 23.9 4 Nordeste 9 Este 0 1013.6 -- 74
2020-09-12 09:00:00 22.6 0 Calma 6 Sur 0 1013.4 -- 75
2020-09-12 08:00:00 21.9 0 Calma 5 Sur 0 1013.3 -- 78
2020-09-12 07:00:00 22.1 0 Calma 8 Sur 0 1012.7 -- 79
2020-09-12 06:00:00 22.3 0 Calma 9 Este 0 1012.1 -- 80
2020-09-12 05:00:00 22.8 3 Este 15 Este 0 1012.2 -- 81
2020-09-12 04:00:00 23 11 Nordeste 14 Nordeste 0 1012.3 -- 81
2020-09-12 03:00:00 23.2 9 Nordeste 13 Nordeste 0 1013 -- 78
2020-09-12 02:00:00 23.3 10 Este 15 Este 0 1013.5 -- 78
2020-09-12 01:00:00 23.5 10 Nordeste 15 Este 0 1014 -- 78
2020-09-12 00:00:00 23.7 9 Este 19 Este 0 1014.3 -- 76
2020-09-11 23:00:00 23.7 12 Nordeste 17 Nordeste 0 1013.8 -- 75
2020-09-11 22:00:00 23.8 10 Nordeste 15 Nordeste 0 1013.6 -- 74
2020-09-11 21:00:00 23.9 15 Nordeste 18 Nordeste 0 1012.6 -- 75
2020-09-11 20:00:00 24.1 10 Este 15 Nordeste 0 1011.7 -- 71
2020-09-11 19:00:00 24.8 11 Nordeste 19 Nordeste 0 1012.5 -- 70
2020-09-11 18:00:00 25.4 14 Nordeste 20 Nordeste 0 1011.7 -- 65
2020-09-11 17:00:00 26.7 14 Nordeste 16 Nordeste 0 1012 -- 60
2020-09-11 16:00:00 28 13 Nordeste 18 Nordeste 0 1012.4 -- 57
2020-09-11 15:00:00 27.6 13 Nordeste 17 Nordeste 0 1013 -- 57
2020-09-11 14:00:00 27.4 12 Nordeste 15 Nordeste 0 1013.4 -- 58
2020-09-11 13:00:00 26.8 12 Nordeste -- -- -- 1014 -- 60
2020-09-11 12:00:00 25.8 14 Nordeste 17 Este 0 1014.4 -- 65
2020-09-11 11:00:00 25.4 9 Nordeste 12 Nordeste 0 1014.3 -- 67
2020-09-11 10:00:00 24 5 Este 9 Este 0 1014 -- 68
2020-09-11 09:00:00 23.5 4 Este 10 Sur 0 1013.6 -- 70
2020-09-11 08:00:00 21.6 5 Sur 10 Sur 0 1013.8 -- 75
2020-09-11 07:00:00 21.8 5 Sur 10 Sudeste 0 1013.6 -- 74
2020-09-11 06:00:00 22.5 3 Sudeste 9 Sudeste 0 1013.7 -- 73
2020-09-11 05:00:00 22.7 3 Sudeste 8 Sudeste 0 1014.1 -- 75
2020-09-11 04:00:00 22.8 4 Sudeste 9 Sudeste 0 1014 -- 76
2020-09-11 03:00:00 23 3 Este 8 Sudeste 0 1014.4 -- 78
2020-09-11 02:00:00 22.8 3 Sur 10 Este 0 1015.1 -- 78
2020-09-11 01:00:00 22.8 5 Este 13 Nordeste 0 1014.9 -- 79
2020-09-11 00:00:00 23 8 Este 14 Nordeste 0 1015.4 -- 81
2020-09-10 23:00:00 23.2 10 Este 16 Nordeste 0 1015.7 -- 81
2020-09-10 22:00:00 23.2 11 Este 17 Nordeste 0 1015.4 -- 79
2020-09-10 21:00:00 23.6 10 Este 14 Nordeste 0 1015 -- 78
2020-09-10 20:00:00 24.3 11 Nordeste 17 Nordeste 0 1014.9 -- 73
2020-09-10 19:00:00 24.7 14 Nordeste 21 Nordeste 0 1014 -- 71
2020-09-10 18:00:00 26.4 16 Nordeste 26 Nordeste 0 1014.1 -- 65
2020-09-10 17:00:00 26.3 19 Nordeste 26 Este 0 1014 -- 64
2020-09-10 16:00:00 26.3 20 Nordeste 25 Nordeste 0 1014.3 -- 64
2020-09-10 15:00:00 26.6 19 Nordeste 24 Nordeste 0 1014.6 -- 64
2020-09-10 14:00:00 26.5 17 Nordeste 23 Este 0 1015.3 -- 63
2020-09-10 13:00:00 26.3 17 Nordeste 25 Nordeste 0 1016.2 -- 65
2020-09-10 12:00:00 25.5 19 Nordeste 24 Nordeste 0 1016.9 -- 69
2020-09-10 11:00:00 24.9 17 Nordeste 25 Este 0 1017.2 -- 71
2020-09-10 10:00:00 24.7 8 Este 15 Nordeste 0 1017 -- 72
2020-09-10 09:00:00 23.7 6 Este 12 Este 0 1017.3 -- 78
2020-09-10 08:00:00 22.1 5 Sudeste 10 Sur 0 1017.7 -- 82
2020-09-10 07:00:00 22.7 4 Sudeste 12 Sudeste 0 1017.6 -- 83
2020-09-10 06:00:00 22.8 5 Nordeste 13 Este 0 1017.5 -- 87
2020-09-10 05:00:00 22.9 7 Este 15 Nordeste 0 1017 -- 88
2020-09-10 04:00:00 23.1 8 Este 12 Nordeste 0 1016.8 -- 89
2020-09-10 03:00:00 23.1 5 Este 17 Nordeste 0 1017.2 -- 89
2020-09-10 02:00:00 23.4 9 Nordeste 18 Nordeste 0 1017.5 -- 89
2020-09-10 01:00:00 23.7 12 Nordeste 17 Nordeste 0 1017.6 -- 89
2020-09-10 00:00:00 24 9 Nordeste 24 Nordeste 0 1018.1 -- 90
2020-09-09 23:00:00 23.9 17 Nordeste 27 Nordeste 0 1017.9 -- 91
2020-09-09 22:00:00 24.1 18 Nordeste 26 Nordeste 0 1017.1 -- 91
2020-09-09 21:00:00 24.6 4 Nordeste 17 Nordeste 0 1016 -- 85
2020-09-09 20:00:00 25.4 9 Nordeste 17 Nordeste 0 1015.2 -- 80
2020-09-09 19:00:00 26.6 9 Nordeste 15 Nordeste 0 1014.3 -- 72
2020-09-09 18:00:00 27.5 10 Nordeste 20 Nordeste 0 1014.1 -- 70
2020-09-09 17:00:00 27.6 11 Nordeste 19 Nordeste 0 1014.6 -- 68
2020-09-09 16:00:00 27.7 15 Nordeste 21 Nordeste 0 1014.9 -- 68
2020-09-09 15:00:00 27.5 15 Nordeste 23 Nordeste 0 1015.5 -- 70
2020-09-09 14:00:00 27.5 12 Nordeste 18 Nordeste 0 1016.2 -- 71
2020-09-09 13:00:00 27.1 11 Nordeste 16 Este 0 1016.6 -- 73
2020-09-09 12:00:00 26.5 9 Nordeste 19 Este 0 1016.9 -- 77
2020-09-09 11:00:00 25.4 15 Este 20 Nordeste 0 1016.3 -- 80
2020-09-09 10:00:00 24.6 9 Nordeste 14 Este 0 1016.3 -- 80
2020-09-09 09:00:00 23.9 0 Calma 12 Sudeste 0 1016.3 -- 82
2020-09-09 08:00:00 22 6 Sudeste 13 Sudeste 0 1016.3 -- 84
2020-09-09 07:00:00 21.7 4 Sur 9 Sudeste 0 1015.4 -- 86
2020-09-09 06:00:00 22.6 3 Sudoeste 7 Sudoeste 0 1014.8 -- 93
2020-09-09 05:00:00 22.8 0 Calma 6 Sudoeste 0 1014.6 -- 92
2020-09-09 04:00:00 23.1 3 Este 14 Sudeste 0 1014.6 -- 93
2020-09-09 03:00:00 23 0 Calma 6 Sur 0 1015.2 -- 91
2020-09-09 02:00:00 23.4 0 Calma 6 Norte 0 1015.2 -- 95
2020-09-09 01:00:00 23.7 0 Calma 9 Sudoeste 0 1015.5 -- 95
2020-09-09 00:00:00 24 0 Calma 14 Nordeste 0 1015.3 -- 95
2020-09-08 23:00:00 24 10 Nordeste 16 Nordeste 0 1015.3 -- 95
2020-09-08 22:00:00 24 3 Nordeste 16 Nordeste 0 1014.7 -- 94
2020-09-08 21:00:00 24.2 11 Nordeste 17 Nordeste 0 1014.2 -- 92
2020-09-08 20:00:00 24.8 13 Nordeste 21 Nordeste 0 1013.1 -- 88
2020-09-08 19:00:00 26 15 Nordeste 22 Nordeste 0 1012.9 -- 80
2020-09-08 18:00:00 27.2 16 Nordeste 23 Nordeste 0 1012.3 -- 74
2020-09-08 17:00:00 27.3 17 Nordeste 21 Este 0 1012.1 -- 71
2020-09-08 16:00:00 27.4 14 Nordeste 19 Nordeste 0 1012.4 -- 70
2020-09-08 15:00:00 27.9 15 Nordeste 21 Nordeste 0 1012.6 -- 71
2020-09-08 14:00:00 27.3 14 Nordeste 21 Nordeste 0 1013 -- 73
2020-09-08 13:00:00 26.6 17 Nordeste 23 Nordeste 0 1013.3 -- 78
2020-09-08 12:00:00 25.9 9 Nordeste 17 Nordeste 0 1013.7 -- 82
2020-09-08 11:00:00 24.9 4 Este 16 Sudoeste 0 1014 -- 87
2020-09-08 10:00:00 24.3 3 Nordeste 16 Este 0 1013.5 -- 92
2020-09-08 09:00:00 23.4 2 Nordeste 12 Nordeste 0 1013.1 -- 96
2020-09-08 08:00:00 23.2 4 Sudoeste 9 Nordeste 0 1012.3 -- 98
2020-09-08 07:00:00 23.2 4 Nordeste 10 Nordeste 0 1012.4 -- 98
2020-09-08 06:00:00 23.2 4 Sudoeste 11 Sudoeste 0 1011.6 -- 98
2020-09-08 05:00:00 23.2 5 Sudoeste 11 Sudoeste 0 1011.5 -- 95
2020-09-08 04:00:00 23.3 4 Sudoeste 8 Sudoeste 0 1011.6 -- 96
2020-09-08 03:00:00 23.6 0 Calma 7 Oeste 0 1011.5 -- 96
2020-09-08 02:00:00 23.6 0 Calma 9 Oeste 0 1011.9 -- 96
2020-09-08 01:00:00 23.9 3 Sudoeste 8 Sudoeste 0 1012.3 -- 95
2020-09-08 00:00:00 23.8 0 Calma 5 Nordeste 0 1012.6 -- 94
2020-09-07 23:00:00 24.1 0 Calma 4 Norte 0 1012.7 -- 93
2020-09-07 22:00:00 24.5 0 Calma 5 Noroeste 0 1012.3 -- 89
2020-09-07 21:00:00 24.6 0 Calma 10 Sudoeste 0 1011.4 -- 86
2020-09-07 20:00:00 24.8 7 Sudoeste 17 Oeste 0 1011.3 -- 84
2020-09-07 19:00:00 25 10 Sudoeste 22 Oeste 0 1010.9 -- 82
2020-09-07 18:00:00 25.2 11 Oeste 19 Oeste 0 1010.2 -- 78
2020-09-07 17:00:00 25.6 4 Noroeste 9 Nordeste 0 1010.1 -- 77
2020-09-07 16:00:00 27.1 11 Nordeste 22 Nordeste 0 1010.1 -- 75
2020-09-07 15:00:00 26.1 16 Nordeste 30 Nordeste 0 1010.5 -- 78
2020-09-07 14:00:00 25.4 22 Nordeste 30 Este 0 1011 -- 78
2020-09-07 13:00:00 25.9 19 Nordeste 24 Nordeste 0 1011.1 -- 80
2020-09-07 12:00:00 24.6 8 Este 18 Este 0 1011.6 -- 83
2020-09-07 11:00:00 24.7 10 Nordeste 14 Nordeste 0 1011.8 -- 82
2020-09-07 10:00:00 24.5 0 Calma 9 Este 0 1011.7 -- 83
2020-09-07 09:00:00 23.3 0 Calma 8 Nordeste 0 1011.8 -- 87
2020-09-07 08:00:00 23 3 Nordeste 12 Este 0 1011.3 -- 88
2020-09-07 07:00:00 23.1 3 Nordeste 5 Nordeste 0 1010.9 -- 88
2020-09-07 06:00:00 23.1 0 Calma 5 Sur 0.2 1010.4 -- 87
2020-09-07 05:00:00 23.2 2 Oeste 9 Sudoeste 0 1010.6 -- 85
2020-09-07 04:00:00 23.2 0 Calma 9 Norte 0 1010.4 -- 82
2020-09-07 03:00:00 23.2 3 Nordeste 9 Nordeste 0 1010.7 -- 82
2020-09-07 02:00:00 23.4 5 Nordeste 17 Nordeste 0 1011.1 -- 82
2020-09-07 01:00:00 23.5 5 Este 12 Nordeste 0 1010.9 -- 81
2020-09-07 00:00:00 23.6 11 Nordeste 19 Nordeste 0 1010.8 -- 82
2020-09-06 23:00:00 23.6 15 Nordeste 19 Nordeste 0 1010.6 -- 81
2020-09-06 22:00:00 23.7 13 Nordeste 18 Nordeste 0 1010.2 -- 79
2020-09-06 21:00:00 23.8 13 Nordeste 18 Nordeste 0 1009.6 -- 78
2020-09-06 20:00:00 24.6 14 Nordeste 19 Nordeste 0 1009.3 -- 71
2020-09-06 19:00:00 26.1 14 Nordeste 18 Este 0 1008.8 -- 64
2020-09-06 18:00:00 27.5 12 Nordeste 17 Nordeste 0 1008.7 -- 59
2020-09-06 17:00:00 27.9 12 Nordeste 16 Nordeste 0 1009 -- 58
2020-09-06 16:00:00 28.1 11 Nordeste 17 Este 0 1009.2 -- 57
2020-09-06 15:00:00 28 11 Nordeste 17 Nordeste 0 1009.7 -- 57
2020-09-06 14:00:00 27.6 12 Nordeste 17 Nordeste 0 1009.8 -- 58
2020-09-06 13:00:00 26.9 10 Nordeste 16 Nordeste 0 1010.2 -- 60
2020-09-06 12:00:00 25.9 10 Nordeste 15 Nordeste 0 1010.7 -- 61
2020-09-06 11:00:00 25.3 8 Nordeste 14 Nordeste 0 1010.8 -- 62
2020-09-06 10:00:00 24.2 5 Nordeste 10 Sudeste 0 1010.4 -- 57
2020-09-06 09:00:00 22.7 3 Sur 14 Sudeste 0 1010.3 -- 55
2020-09-06 08:00:00 20.4 6 Sur 13 Sur 0 1010.4 -- 60
2020-09-06 07:00:00 20.5 6 Sur 12 Sur 0 1010.4 -- 63
2020-09-06 06:00:00 20.6 6 Sur 12 Sur 0 1010.5 -- 65
2020-09-06 05:00:00 20.8 4 Sur 12 Sur 0 1010.6 -- 68
2020-09-06 04:00:00 21.4 5 Sur 10 Sudeste 0 1011.2 -- 70
2020-09-06 03:00:00 22 3 Sur 6 Sur 0 1011.6 -- 73
2020-09-06 02:00:00 22.6 2 Sur 9 Nordeste 0 1012.1 -- 75
2020-09-06 01:00:00 23.2 7 Nordeste 11 Nordeste 0 1012.6 -- 78
2020-09-06 00:00:00 23.4 7 Nordeste 12 Nordeste 0 1012.6 -- 77
2020-09-05 23:00:00 23.7 8 Nordeste 13 Nordeste 0 1012.6 -- 75
2020-09-05 22:00:00 23.7 8 Nordeste 11 Nordeste 0 1012 -- 75
2020-09-05 21:00:00 23.6 5 Nordeste 11 Norte 0 1011.5 -- 75
2020-09-05 20:00:00 24.3 5 Norte 9 Norte 0 1011.2 -- 74
2020-09-05 19:00:00 25.5 4 Noroeste 9 Noroeste 0 1011.1 -- 66
2020-09-05 18:00:00 24.9 5 Noroeste 9 Noroeste 0 1011.6 -- 67
2020-09-05 17:00:00 25.6 5 Noroeste 10 Noroeste 0 1011.8 -- 63
2020-09-05 16:00:00 25.6 5 Noroeste 12 Noroeste 0 1012.1 -- 63
2020-09-05 15:00:00 26 5 Noroeste 10 Norte 0 1012.8 -- 60
2020-09-05 14:00:00 26.1 4 Norte 10 Nordeste 0 1013.6 -- 61
2020-09-05 13:00:00 25.5 6 Nordeste 10 Nordeste 0 1014.3 -- 64
2020-09-05 12:00:00 25.2 7 Nordeste 10 Norte 0 1014.3 -- 65
2020-09-05 11:00:00 25.1 7 Nordeste 10 Este 0 1014.5 -- 69
2020-09-05 10:00:00 23.7 2 Este 7 Nordeste 0 1014.7 -- 72
2020-09-05 09:00:00 23.3 0 Calma 6 Este 0 1014.8 -- 73
2020-09-05 08:00:00 23.2 0 Calma 6 Este 0 1014.6 -- 74
2020-09-05 07:00:00 23.2 3 Este 8 Este 0 1014.2 -- 75
2020-09-05 06:00:00 23.1 0 Calma 7 Nordeste 0 1014.3 -- 75
2020-09-05 05:00:00 23.3 3 Este 9 Nordeste 0 1014.3 -- 77
2020-09-05 04:00:00 23.1 6 Nordeste 11 Nordeste 0 1014.7 -- 79
2020-09-05 03:00:00 23.1 0 Calma 6 Nordeste 0 1015.2 -- 79
2020-09-05 02:00:00 23.1 0 Calma 9 Nordeste 0 1016 -- 81
2020-09-05 01:00:00 23 4 Norte 13 Nordeste 0 1016.5 -- 81
2020-09-05 00:00:00 23.3 6 Nordeste 10 Este 0 1015.9 -- 80
2020-09-04 23:00:00 23.7 6 Nordeste 10 Nordeste 0 1016.4 -- 79
2020-09-04 22:00:00 23.6 7 Nordeste 11 Este 0 1016.3 -- 78
2020-09-04 21:00:00 23.8 10 Nordeste 19 Este 0 1015.6 -- 77
2020-09-04 20:00:00 24.5 14 Nordeste 19 Nordeste 0 1014.6 -- 71
2020-09-04 19:00:00 26.2 13 Nordeste 19 Nordeste 0 1014.5 -- 63
2020-09-04 18:00:00 26.3 15 Nordeste 21 Nordeste 0 1014.4 -- 63
2020-09-04 17:00:00 27 16 Nordeste 20 Este 0 1014.4 -- 60
2020-09-04 16:00:00 27 15 Nordeste 23 Este 0 1014.7 -- 60
2020-09-04 15:00:00 26.6 17 Nordeste 21 Nordeste 0 1015.1 -- 60
2020-09-04 14:00:00 26.5 16 Nordeste 21 Nordeste 0 1015.6 -- 60
2020-09-04 13:00:00 26.2 16 Nordeste 23 Este 0 1016.1 -- 60
2020-09-04 12:00:00 25.6 15 Nordeste 19 Nordeste 0 1016.4 -- 63
2020-09-04 11:00:00 25.3 10 Nordeste 14 Nordeste 0 1016.4 -- 64
2020-09-04 10:00:00 24.1 11 Este 16 Este 0 1016.3 -- 69
2020-09-04 09:00:00 22.8 4 Sudeste 9 Sur 0 1016.4 -- 73
2020-09-04 08:00:00 21.3 3 Sudeste 9 Sur 0 1016.2 -- 80
2020-09-04 07:00:00 21.1 4 Sur 11 Sudeste 0 1015.6 -- 80
2020-09-04 06:00:00 20.9 3 Sur 8 Sur 0 1014.9 -- 83
2020-09-04 05:00:00 21.6 0 Calma 7 Sudeste 0 1014.3 -- 79
2020-09-04 04:00:00 21.7 4 Sudeste 9 Sudeste 0 1014.2 -- 78
2020-09-04 03:00:00 21.4 4 Sur 9 Sur 0 1014.1 -- 77
2020-09-04 02:00:00 22.5 0 Calma 6 Nordeste 0 1014.3 -- 79
2020-09-04 01:00:00 22.7 0 Calma 6 Oeste 0 1014.6 -- 79
2020-09-04 00:00:00 23 2 Nordeste 15 Nordeste 0 1014.5 -- 78
2020-09-03 23:00:00 23.3 7 Nordeste 19 Nordeste 0 1014.3 -- 77
2020-09-03 22:00:00 23.7 12 Nordeste 21 Nordeste 0 1013.6 -- 76
2020-09-03 21:00:00 23.6 16 Nordeste 21 Norte 0 1012.7 -- 76
2020-09-03 20:00:00 24.2 16 Nordeste 21 Nordeste 0 1012.3 -- 72
2020-09-03 19:00:00 25.5 17 Nordeste 24 Nordeste 0 1011.7 -- 67
2020-09-03 18:00:00 26.4 20 Nordeste 25 Nordeste 0 1011.6 -- 63
2020-09-03 17:00:00 27.1 18 Nordeste 27 Nordeste 0 1011.5 -- 64
2020-09-03 16:00:00 26.9 21 Nordeste 27 Nordeste 0 1011.3 -- 63
2020-09-03 15:00:00 27.2 20 Nordeste 32 Nordeste 0 1011.6 -- 62
2020-09-03 14:00:00 26.6 22 Nordeste 31 Nordeste 0 1011.9 -- 66
2020-09-03 13:00:00 26.6 19 Nordeste 25 Nordeste 0 1012 -- 63
2020-09-03 12:00:00 26.1 5 Nordeste 11 Nordeste 0 1012.1 -- 60
2020-09-03 11:00:00 23.9 4 Noroeste 8 Oeste 0 1012.3 -- 67
2020-09-03 10:00:00 23.8 2 Noroeste 8 Noroeste 0 1012.1 -- 68
2020-09-03 09:00:00 22.9 0 Calma 7 Sur 0 1012 -- 69
2020-09-03 08:00:00 20.8 3 Sur 7 Sudoeste 0 1011.6 -- 79
2020-09-03 07:00:00 20.6 2 Sur 10 Sur 0 1011.2 -- 78
2020-09-03 06:00:00 20.2 6 Sur 10 Sudeste 0 1011.1 -- 77
2020-09-03 05:00:00 21.7 3 Sur 10 Sur 0 1010.8 -- 78
2020-09-03 04:00:00 20.9 6 Sur 11 Sudeste 0 1011 -- 78
2020-09-03 03:00:00 21.8 2 Sur 10 Sur 0 1011.1 -- 75
2020-09-03 02:00:00 22.4 0 Calma 7 Sur 0 1011.3 -- 78
2020-09-03 01:00:00 23.1 0 Calma 8 Sudoeste 0 1011.4 -- 79
2020-09-03 00:00:00 23.2 2 Sudoeste 10 Oeste 0 1011.7 -- 81
2020-09-02 23:00:00 23.4 6 Sudoeste 11 Oeste 0 1011.6 -- 81
2020-09-02 22:00:00 23.4 4 Sudoeste 9 Sudoeste 0 1011.2 -- 81
2020-09-02 21:00:00 23.7 2 Nordeste 20 Nordeste 0 1010.4 -- 81
2020-09-02 20:00:00 24.1 13 Nordeste 24 Nordeste 0 1010.5 -- 78
2020-09-02 19:00:00 24.7 17 Nordeste 21 Nordeste 0 1010.2 -- 74
2020-09-02 18:00:00 25.1 18 Nordeste 25 Nordeste 0 1010.2 -- 71
2020-09-02 17:00:00 26.4 19 Nordeste 25 Nordeste 0 1009.8 -- 65
2020-09-02 16:00:00 27.4 19 Nordeste 24 Nordeste 0 1009.9 -- 62
2020-09-02 15:00:00 27.3 18 Nordeste 24 Nordeste 0 1010.1 -- 62
2020-09-02 14:00:00 27 17 Nordeste 23 Nordeste 0 1010.4 -- 64
2020-09-02 13:00:00 26.7 17 Nordeste 23 Nordeste 0 1010.6 -- 63
2020-09-02 12:00:00 26.1 17 Nordeste 21 Nordeste 0 1010.8 -- 66
2020-09-02 11:00:00 26 9 Nordeste 13 Nordeste 0 1010.8 -- 63
2020-09-02 10:00:00 24.5 3 Nordeste 9 Sudeste 0 1010.7 -- 66
2020-09-02 09:00:00 23.2 4 Sur 10 Sur 0 1010.5 -- 71
2020-09-02 08:00:00 21.7 4 Sur 14 Sudeste 0 1010.6 -- 75
2020-09-02 07:00:00 21.1 6 Sur 12 Sur 0 1010.5 -- 75
2020-09-02 06:00:00 21.4 3 Sur 11 Sur 0 1010.3 -- 78
2020-09-02 05:00:00 21.2 4 Sur 22 Sur 0 1010.4 -- 77
2020-09-02 04:00:00 21 7 Sur 13 Sur 0 1010.5 -- 73
2020-09-02 03:00:00 21.2 6 Sur 11 Sur 0 1010.9 -- 72
2020-09-02 02:00:00 21.9 3 Sudeste 11 Sur 0 1011.3 -- 72
2020-09-02 01:00:00 22.4 2 Sur 8 Sudeste 0 1011.5 -- 74
2020-09-02 00:00:00 23 5 Nordeste 10 Nordeste 0 1011.7 -- 87
2020-09-01 23:00:00 23.4 4 Este 12 Nordeste 0 1011.8 -- 92
2020-09-01 22:00:00 23.8 7 Nordeste 12 Nordeste 0 1011.2 -- 89
2020-09-01 21:00:00 24.2 7 Nordeste 12 Nordeste 0 1010.7 -- 87
2020-09-01 20:00:00 24.6 9 Nordeste 13 Nordeste 0 1010.3 -- 83
2020-09-01 19:00:00 26.5 9 Nordeste 11 Nordeste 0 1009.5 -- 72
2020-09-01 18:00:00 27.7 9 Nordeste 10 Nordeste 0 1009.7 -- 69
2020-09-01 17:00:00 26.6 8 Nordeste 10 Nordeste 0 1010 -- 74
2020-09-01 16:00:00 25.8 5 Nordeste 13 Nordeste 0 1010.3 -- 77
2020-09-01 15:00:00 25.3 7 Nordeste 13 Nordeste 0 1010.8 -- 79
2020-09-01 14:00:00 25.1 10 Nordeste 17 Nordeste 0 1011.3 -- 78
2020-09-01 13:00:00 25.2 12 Nordeste 18 Nordeste 0 1011.2 -- 74
2020-09-01 12:00:00 25.5 13 Nordeste 17 Nordeste 0 1011.6 -- 71
2020-09-01 11:00:00 25.3 5 Nordeste 10 Este 0 1011.1 -- 66
2020-09-01 10:00:00 24.7 6 Nordeste 9 Este 0 1011 -- 62
2020-09-01 09:00:00 23.3 0 Calma 5 Sur 0 1011 -- 60
2020-09-01 08:00:00 22.8 0 Calma 6 Sur 0 1010.6 -- 62
2020-09-01 07:00:00 23 0 Calma 4 Oeste 0 1010.7 -- 68
2020-09-01 06:00:00 22.7 0 Calma 5 Este 0 1010.4 -- 65
2020-09-01 05:00:00 22.9 3 Este 8 Este 0 1010.5 -- 67
2020-09-01 04:00:00 22.9 0 Calma 9 Sur 0 1010.6 -- 58
2020-09-01 03:00:00 22.8 4 Sur 9 Sudeste 0 1010.8 -- 59
2020-09-01 02:00:00 22.2 5 Sur 12 Sur 0 1011.6 -- 59
2020-09-01 01:00:00 21.7 4 Sur 15 Sur 0 1012 -- 62
2020-09-01 00:00:00 21.5 4 Sur 11 Sudeste 0 1012.3 -- 60
2020-08-31 23:00:00 21.5 4 Sudeste 12 Sudeste 0 1012 -- 59
2020-08-31 22:00:00 21.5 7 Sur 14 Sudeste 0 1011.7 -- 66
2020-08-31 21:00:00 23 6 Nordeste 14 Nordeste 0 1011.1 -- 69
2020-08-31 20:00:00 24.1 11 Nordeste 14 Nordeste 0 1010.7 -- 64
2020-08-31 19:00:00 25.6 10 Nordeste 14 Nordeste 0 1010.1 -- 58
2020-08-31 18:00:00 24.7 13 Nordeste 17 Nordeste 0 1010.3 -- 61
2020-08-31 17:00:00 25.2 13 Nordeste 37 Nordeste 0 1010.5 -- 58
2020-08-31 16:00:00 25.3 13 Nordeste 19 Nordeste 0 1010.7 -- 58
2020-08-31 15:00:00 25.2 13 Nordeste 18 Nordeste 0 1011.3 -- 59
2020-08-31 14:00:00 25 14 Nordeste 19 Nordeste 0 1011.7 -- 57
2020-08-31 13:00:00 25.2 14 Nordeste 21 Nordeste 0 1012.2 -- 58
2020-08-31 12:00:00 25.4 17 Nordeste 21 Nordeste 0 1012.1 -- 58
2020-08-31 11:00:00 24.4 15 Nordeste 20 Nordeste 0 1012.1 -- 61
2020-08-31 10:00:00 24 10 Este 16 Este 0 1011.5 -- 58
2020-08-31 09:00:00 23 5 Sudeste 14 Este 0 1011.4 -- 55
2020-08-31 08:00:00 21 5 Sur 12 Sur 0 1011.4 -- 61
2020-08-31 07:00:00 21 5 Sur 14 Sur 0 1011 -- 61
2020-08-31 06:00:00 21.3 5 Sudeste 14 Sudeste 0 1010.7 -- 61
2020-08-31 05:00:00 21.5 5 Sudeste 10 Sudeste 0 1010.5 -- 61
2020-08-31 04:00:00 21.3 6 Sur 14 Este 0 1010.8 -- 61
2020-08-31 03:00:00 21.8 5 Sudeste 14 Sudeste 0 1011.2 -- 62
2020-08-31 02:00:00 22.2 8 Este 16 Este 0 1011.6 -- 65
2020-08-31 01:00:00 21.7 3 Sudeste 14 Este 0 1011.8 -- 60
2020-08-31 00:00:00 22.3 5 Este 17 Este 0 1011.9 -- 67
2020-08-30 23:00:00 22.5 5 Este 26 Nordeste 0 1011.7 -- 66
2020-08-30 22:00:00 22.5 9 Este 17 Este 0 1011.3 -- 67
2020-08-30 21:00:00 22.7 12 Nordeste 19 Este 0 1011 -- 68
2020-08-30 20:00:00 23.3 12 Nordeste 19 Nordeste 0 1010.6 -- 61
2020-08-30 19:00:00 24.5 14 Nordeste 22 Este 0 1010 -- 60
2020-08-30 18:00:00 24.1 18 Nordeste 49 Nordeste 0 1009.9 -- 62
2020-08-30 17:00:00 24.5 15 Nordeste 26 Este 0 1010 -- 59
2020-08-30 16:00:00 24.6 19 Nordeste 26 Nordeste 0 1010.2 -- 60
2020-08-30 15:00:00 24.1 15 Este 27 Nordeste 0 1010.6 -- 61
2020-08-30 14:00:00 24.6 10 Este 27 Nordeste 0 1011 -- 55
2020-08-30 13:00:00 24.6 13 Nordeste 21 Nordeste 0 1011 -- 60
2020-08-30 12:00:00 23.8 10 Nordeste 18 Este 0 1011.4 -- 61
2020-08-30 11:00:00 22.6 5 Este 16 Este 0 1011.5 -- 67
2020-08-30 10:00:00 21.4 11 Este 26 Nordeste 0 1011.4 -- 77
2020-08-30 09:00:00 21.3 9 Este 32 Nordeste 0.1 1011.4 -- 81
2020-08-30 08:00:00 21.7 3 Sudeste 12 Sur 0 1010.5 -- 67
2020-08-30 07:00:00 21.1 5 Sur 18 Sur 0.4 1010.4 -- 73
2020-08-30 06:00:00 20.5 9 Este 38 Este 0.1 1010.6 -- 89
2020-08-30 05:00:00 22.7 6 Sur 16 Sur 0 1009.2 -- 56
2020-08-30 04:00:00 22.5 5 Sur 20 Nordeste 0 1010.2 -- 67
2020-08-30 03:00:00 22.6 16 Nordeste 23 Nordeste 0 1010.6 -- 71
2020-08-30 02:00:00 22.7 10 Este 20 Nordeste 0 1011.1 -- 76
2020-08-30 01:00:00 22.8 5 Este 14 Este 0 1011.4 -- 79
2020-08-30 00:00:00 23 8 Este 22 Nordeste 0 1011.5 -- 75
2020-08-29 23:00:00 23.3 0 Calma 17 Este 0 1011.2 -- 67
2020-08-29 22:00:00 23.2 14 Nordeste 22 Este 0 1011.1 -- 75
2020-08-29 21:00:00 23.5 18 Nordeste 24 Este 0 1010.5 -- 74
2020-08-29 20:00:00 24.1 14 Nordeste 25 Nordeste 0 1010 -- 75
2020-08-29 19:00:00 25 17 Nordeste 24 Nordeste 0 1009.9 -- 73
2020-08-29 18:00:00 25.2 14 Este 19 Nordeste 0 1009.8 -- 72
2020-08-29 17:00:00 25 10 Este 32 Nordeste 0 1009.9 -- 74
2020-08-29 16:00:00 26.8 20 Nordeste 24 Nordeste 0 1009.4 -- 63
2020-08-29 15:00:00 27.3 18 Nordeste 29 Nordeste 0 1009.8 -- 57
2020-08-29 14:00:00 27.8 18 Nordeste 28 Nordeste 0 1010.1 -- 52
2020-08-29 13:00:00 27.4 16 Nordeste 33 Nordeste 0 1010.8 -- 50
2020-08-29 12:00:00 26.2 24 Nordeste 36 Nordeste 0 1011.2 -- 52
2020-08-29 11:00:00 25.4 19 Nordeste 28 Nordeste 0 1011.6 -- 57
2020-08-29 10:00:00 24.4 16 Nordeste 26 Este 0 1011.8 -- 63
2020-08-29 09:00:00 23.5 4 Sudeste 13 Sur 0 1012 -- 65
2020-08-29 08:00:00 21.9 5 Sudeste 14 Sudeste 0 1012.3 -- 73
2020-08-29 07:00:00 21.3 5 Sur 13 Sur 0 1012.2 -- 78
2020-08-29 06:00:00 21.6 5 Sudeste 14 Sudeste 0 1011.8 -- 79
2020-08-29 05:00:00 21.5 5 Sudeste 13 Sudeste 0 1011.8 -- 80
2020-08-29 04:00:00 21.9 4 Sudeste 16 Nordeste 0 1011.9 -- 81
2020-08-29 03:00:00 22.3 6 Este 17 Este 0 1012.5 -- 82
2020-08-29 02:00:00 22.5 0 Calma 34 Nordeste 0 1012.8 -- 84
2020-08-29 01:00:00 22.8 16 Nordeste 26 Nordeste 0 1013.1 -- 85
2020-08-29 00:00:00 22.8 18 Nordeste 29 Este 0 1013.2 -- 88
2020-08-28 23:00:00 23.1 18 Nordeste 29 Nordeste 0 1013.4 -- 86
2020-08-28 22:00:00 23.4 20 Nordeste 32 Nordeste 0 1013.4 -- 87
2020-08-28 21:00:00 23.7 19 Nordeste 27 Nordeste 0 1012.8 -- 86
2020-08-28 20:00:00 24.3 19 Nordeste 31 Este 0 1012.2 -- 81
2020-08-28 19:00:00 25.4 19 Nordeste 30 Nordeste 0 1012 -- 77
2020-08-28 18:00:00 26.2 17 Nordeste 27 Nordeste 0 1011.4 -- 73
2020-08-28 17:00:00 26.2 13 Este 27 Nordeste 0 1011.6 -- 74
2020-08-28 16:00:00 26.5 21 Nordeste 33 Nordeste 0 1011.8 -- 72
2020-08-28 15:00:00 26.9 19 Nordeste 27 Nordeste 0 1012 -- 71
2020-08-28 14:00:00 27 18 Nordeste 26 Nordeste 0 1012.2 -- 73
2020-08-28 13:00:00 26.2 18 Nordeste 24 Nordeste 0 1012.4 -- 76
2020-08-28 12:00:00 26.3 8 Nordeste 19 Este 0 1012.8 -- 78
2020-08-28 11:00:00 25.2 15 Nordeste 20 Nordeste 0 1013 -- 81
2020-08-28 10:00:00 24.7 5 Nordeste 10 Norte 0 1013.3 -- 85
2020-08-28 09:00:00 23.4 2 Norte 9 Nordeste 0 1013.3 -- 95
2020-08-28 08:00:00 23.1 4 Sudeste 8 Sudeste 0 1013 -- 95
2020-08-28 07:00:00 23.1 0 Calma 8 Sudoeste 0 1012.4 -- 95
2020-08-28 06:00:00 23.3 2 Oeste 8 Noroeste 0 1012.3 -- 95
2020-08-28 05:00:00 23.3 3 Este 12 Este 0 1012.4 -- 92
2020-08-28 04:00:00 23.1 2 Sudeste 6 Sudeste 0 1012.6 -- 90
2020-08-28 03:00:00 23.5 0 Calma 7 Noroeste 0 1012.7 -- 90
2020-08-28 02:00:00 23.8 0 Calma 5 Oeste 0 1013.2 -- 90
2020-08-28 01:00:00 23.9 2 Oeste 6 Sudoeste 0 1013.6 -- 90
2020-08-28 00:00:00 24 0 Calma 8 Nordeste 0 1013.8 -- 91
2020-08-27 23:00:00 24.3 2 Nordeste 7 Nordeste 0 1013.9 -- 91
2020-08-27 22:00:00 24.5 6 Nordeste 10 Nordeste 0 1013.6 -- 89
2020-08-27 21:00:00 24.9 4 Este 10 Este 0 1013.3 -- 86
2020-08-27 20:00:00 25.8 5 Este 12 Este 0 1012.7 -- 80
2020-08-27 19:00:00 27.2 7 Nordeste 14 Este 0 1012.3 -- 71
2020-08-27 18:00:00 28 9 Nordeste 15 Nordeste 0 1012.2 -- 69
2020-08-27 17:00:00 28.5 8 Nordeste 15 Este 0 1012 -- 67
2020-08-27 16:00:00 27.6 6 Nordeste 8 Nordeste 0 1012.5 -- 73
2020-08-27 15:00:00 29.3 5 Nordeste 10 Nordeste 0 1012.6 -- 66
2020-08-27 14:00:00 28.3 6 Nordeste 12 Este 0 1013.1 -- 70
2020-08-27 13:00:00 28 7 Nordeste 12 Este 0 1013.4 -- 73
2020-08-27 12:00:00 26.7 5 Nordeste 9 Este 0 1013.5 -- 80
2020-08-27 11:00:00 24.8 6 Sudoeste 14 Sudoeste 0 1013.8 -- 91
2020-08-27 10:00:00 24.2 8 Oeste 18 Sudoeste 0 1013.5 -- 96
2020-08-27 09:00:00 23.7 7 Sudoeste 11 Sudoeste 0 1013.3 -- 98
2020-08-27 08:00:00 23.6 0 Calma 9 Este 0 1012.9 -- 98
2020-08-27 07:00:00 23.9 0 Calma 14 Sudoeste 0 1012.6 -- 98
2020-08-27 06:00:00 23.7 9 Sudoeste 14 Sudoeste 0 1012.2 -- 98
2020-08-27 05:00:00 23.8 2 Sudoeste 7 Oeste 0 1012.4 -- 98
2020-08-27 04:00:00 23.8 5 Oeste 8 Oeste 0 1012.4 -- 98
2020-08-27 03:00:00 23.8 3 Este 8 Este 0 1012.6 -- 98
2020-08-27 02:00:00 23.8 0 Calma 4 Este 0 1012.8 -- 98
2020-08-27 01:00:00 23.7 3 Este 10 Este 0 1012.9 -- 98
2020-08-27 00:00:00 24 0 Calma 8 Este 0 1013.1 -- 97
2020-08-26 23:00:00 24.1 5 Este 10 Nordeste 0 1013.2 -- 97
2020-08-26 22:00:00 24.3 5 Este 10 Este 0 1012.6 -- 95
2020-08-26 21:00:00 24.5 6 Este 10 Nordeste 0 1012 -- 93
2020-08-26 20:00:00 25.1 6 Este 11 Nordeste 0 1011.4 -- 90
2020-08-26 19:00:00 26.2 6 Nordeste 9 Nordeste 0 1010.7 -- 81
2020-08-26 18:00:00 27 8 Nordeste 12 Nordeste 0 1010.3 -- 78
2020-08-26 17:00:00 27.6 8 Nordeste 13 Noroeste 0 1009.9 -- 76
2020-08-26 16:00:00 26 7 Oeste 19 Oeste 0 1010 -- 81
2020-08-26 15:00:00 26 7 Oeste 17 Oeste 0 1010.2 -- 83
2020-08-26 14:00:00 25 9 Sudoeste 33 Sudoeste 0 1010.8 -- 88
2020-08-26 13:00:00 23.9 11 Sudoeste 23 Oeste 0 1010.9 -- 92
2020-08-26 12:00:00 24.1 9 Sudoeste 16 Sudoeste 0 1011.1 -- 92
2020-08-26 11:00:00 24 5 Norte 18 Este 0 1011.1 -- 91
2020-08-26 10:00:00 24.3 3 Nordeste 9 Este 0 1010.2 -- 90
2020-08-26 09:00:00 23.4 0 Calma 9 Oeste 0 1010 -- 93
2020-08-26 08:00:00 23.1 2 Este 9 Sudeste 0 1010 -- 89
2020-08-26 07:00:00 22.9 0 Calma 5 Sudeste 0 1009.9 -- 87
2020-08-26 06:00:00 23.2 2 Sur 10 Sudoeste 0 1009.2 -- 86
2020-08-26 05:00:00 23.2 0 Calma 6 Sur 0 1009.5 -- 85
2020-08-26 04:00:00 23.1 4 Sur 12 Este 0 1009.9 -- 86
2020-08-26 03:00:00 23.2 4 Este 12 Este 0 1010.4 -- 86
2020-08-26 02:00:00 23.2 4 Este 12 Este 0 1010.5 -- 88
2020-08-26 01:00:00 23.2 8 Nordeste 14 Este 0 1010.9 -- 93
2020-08-26 00:00:00 23.4 7 Este 20 Nordeste 0 1011 -- 93
2020-08-25 23:00:00 23.3 5 Este 17 Este 0 1010.9 -- 93
2020-08-25 22:00:00 23.4 10 Nordeste 17 Nordeste 0 1010.6 -- 92
2020-08-25 21:00:00 23.5 10 Nordeste 18 Este 0 1010.1 -- 91
2020-08-25 20:00:00 23.7 10 Este 18 Este 0 1009.6 -- 89
2020-08-25 19:00:00 23.9 12 Este 20 Nordeste 0 1009.5 -- 88
2020-08-25 18:00:00 24.2 10 Nordeste 17 Nordeste 0 1009.3 -- 85
2020-08-25 17:00:00 24.6 12 Nordeste 19 Nordeste 0 1009.1 -- 82
2020-08-25 16:00:00 24.9 12 Nordeste 20 Nordeste 0 1009.4 -- 81
2020-08-25 15:00:00 25.1 14 Nordeste 21 Este 0 1009.4 -- 78
2020-08-25 14:00:00 25.5 15 Nordeste 21 Este 0 1009.6 -- 76
2020-08-25 13:00:00 25.6 16 Nordeste 22 Nordeste 0 1009.9 -- 75
2020-08-25 12:00:00 25.9 14 Nordeste 20 Nordeste 0 1010 -- 74
2020-08-25 11:00:00 24.6 4 Nordeste 11 Norte 0 1009.9 -- 74
2020-08-25 10:00:00 24.8 5 Nordeste 13 Nordeste 0 1009.4 -- 74
2020-08-25 09:00:00 22.8 0 Calma 10 Este 0 1009.4 -- 81
2020-08-25 08:00:00 21.9 0 Calma 8 Sudoeste 0 1009.3 -- 84
2020-08-25 07:00:00 22 0 Calma 10 Sur 0 1009.3 -- 83
2020-08-25 06:00:00 22 0 Calma 10 Sudeste 0 1009.4 -- 83
2020-08-25 05:00:00 21.7 4 Sur 10 Sudeste 0 1009.9 -- 82
2020-08-25 04:00:00 22.2 4 Sudeste 14 Sudeste 0 1010.5 -- 82
2020-08-25 03:00:00 21.9 4 Sudeste 19 Nordeste 0 1011 -- 82
2020-08-25 02:00:00 22.8 8 Nordeste 18 Este 0 1011.4 -- 89
2020-08-25 01:00:00 22.9 13 Este 22 Nordeste 0 1011.7 -- 89
2020-08-25 00:00:00 22.9 13 Nordeste 21 Nordeste 0 1012 -- 89
2020-08-24 23:00:00 23.1 16 Nordeste 20 Nordeste 0 1012 -- 88
2020-08-24 22:00:00 23.2 11 Nordeste 22 Nordeste 0 1011.6 -- 88
2020-08-24 21:00:00 23.6 15 Nordeste 23 Este 0 1010.9 -- 85
2020-08-24 20:00:00 24 13 Nordeste 21 Nordeste 0 1010.5 -- 82
2020-08-24 19:00:00 24.4 16 Nordeste 27 Nordeste 0 1010.2 -- 78
2020-08-24 18:00:00 24.8 17 Nordeste 24 Nordeste 0 1010.2 -- 77
2020-08-24 17:00:00 25.2 19 Nordeste 26 Nordeste 0 1010.2 -- 74
2020-08-24 16:00:00 25.9 14 Nordeste 31 Nordeste 0 1010.7 -- 72
2020-08-24 15:00:00 26 21 Nordeste 37 Nordeste 0 1011 -- 70
2020-08-24 14:00:00 26.3 22 Nordeste 37 Nordeste 0 1011.3 -- 71
2020-08-24 13:00:00 25.4 21 Nordeste 39 Nordeste 0 1012.1 -- 74
2020-08-24 12:00:00 25.5 19 Nordeste 31 Nordeste 0 1012.4 -- 74
2020-08-24 11:00:00 25.2 10 Nordeste 20 Norte 0 1012.7 -- 74
2020-08-24 10:00:00 24.1 9 Nordeste 16 Este 0 1012.8 -- 75
2020-08-24 09:00:00 22.8 6 Sudeste 14 Sudeste 0 1012.8 -- 75
2020-08-24 08:00:00 22 8 Sudeste 16 Sudeste 0 1012.8 -- 80
2020-08-24 07:00:00 21.4 4 Sudeste 11 Sur 0 1012.5 -- 82
2020-08-24 06:00:00 21.7 2 Sur 10 Sudeste 0 1012.6 -- 82
2020-08-24 05:00:00 22.1 4 Sudeste 12 Sudeste 0 1012.7 -- 82
2020-08-24 04:00:00 21.9 5 Sur 10 Sur 0 1013 -- 79
2020-08-24 03:00:00 21.6 4 Sur 12 Sudeste 0 1013.3 -- 78
2020-08-24 02:00:00 22.3 0 Calma 12 Este 0 1013.7 -- 81
2020-08-24 01:00:00 22.8 7 Este 21 Nordeste 0 1014.2 -- 81
2020-08-24 00:00:00 22.9 12 Nordeste 18 Nordeste 0 1014.6 -- 88
2020-08-23 23:00:00 23.1 15 Nordeste 23 Nordeste 0 1014.6 -- 87
2020-08-23 22:00:00 23.2 17 Nordeste 24 Este 0 1014.4 -- 87
2020-08-23 21:00:00 23.7 13 Nordeste 21 Nordeste 0 1014 -- 85
2020-08-23 20:00:00 24.6 14 Este 21 Nordeste 0 1013.7 -- 78
2020-08-23 19:00:00 25.5 15 Este 23 Nordeste 0 1013.8 -- 73
2020-08-23 18:00:00 26.5 14 Nordeste 23 Nordeste 0 1014.3 -- 70
2020-08-23 17:00:00 26.8 17 Nordeste 24 Este 0 1014.5 -- 68
2020-08-23 16:00:00 26.7 18 Nordeste 24 Nordeste 0 1014.7 -- 67
2020-08-23 15:00:00 26.6 17 Nordeste 26 Nordeste 0 1015.2 -- 69
2020-08-23 14:00:00 26.6 18 Nordeste 24 Nordeste 0 1015.7 -- 71
2020-08-23 13:00:00 26 20 Nordeste 26 Nordeste 0 1016.3 -- 75
2020-08-23 12:00:00 25.3 20 Nordeste 26 Nordeste 0 1016.8 -- 79
2020-08-23 11:00:00 24.8 18 Nordeste 23 Nordeste 0 1017 -- 80
2020-08-23 10:00:00 24.5 12 Nordeste 16 Este 0 1016.7 -- 80
2020-08-23 09:00:00 23.6 3 Este 9 Sur 0 1016.9 -- 85
2020-08-23 08:00:00 21.7 5 Sudeste 11 Sudeste 0 1016.7 -- 89
2020-08-23 07:00:00 21.7 4 Sur 11 Sudeste 0 1016.7 -- 89
2020-08-23 06:00:00 22.1 3 Sudeste 10 Este 0 1016.6 -- 91
2020-08-23 05:00:00 22.4 3 Sudeste 11 Nordeste 0 1016.7 -- 91
2020-08-23 04:00:00 22.6 3 Nordeste 17 Sudeste 0 1016.7 -- 92
2020-08-23 03:00:00 22.9 2 Sudeste 18 Nordeste 0 1016.7 -- 92
2020-08-23 02:00:00 23.1 8 Nordeste 24 Nordeste 0 1017.2 -- 92
2020-08-23 01:00:00 23.2 14 Nordeste 26 Nordeste 0 1017.5 -- 92
2020-08-23 00:00:00 23.3 16 Nordeste 27 Nordeste 0 1017.7 -- 91
2020-08-22 23:00:00 23.6 17 Nordeste 25 Nordeste 0 1017.5 -- 90
2020-08-22 22:00:00 23.8 15 Nordeste 27 Este 0 1017.3 -- 91
2020-08-22 21:00:00 24 10 Este 21 Nordeste 0 1016.7 -- 88
2020-08-22 20:00:00 24.6 13 Este 23 Este 0 1016.1 -- 85
2020-08-22 19:00:00 25.9 18 Nordeste 27 Nordeste 0 1015.6 -- 77
2020-08-22 18:00:00 26.6 21 Nordeste 28 Nordeste 0 1015.2 -- 73
2020-08-22 17:00:00 26.7 18 Nordeste 26 Nordeste 0 1015.1 -- 72
2020-08-22 16:00:00 27.4 19 Nordeste 27 Nordeste 0 1015.1 -- 70
2020-08-22 15:00:00 27.4 12 Nordeste 23 Nordeste 0 1015.5 -- 71
2020-08-22 14:00:00 26.9 16 Nordeste 22 Norte 0 1015.5 -- 73
2020-08-22 13:00:00 25.8 8 Sudoeste 21 Oeste 0 1015.8 -- 73
2020-08-22 12:00:00 25 8 Oeste 17 Noroeste 0 1015.6 -- 79
2020-08-22 11:00:00 25.2 4 Nordeste 9 Noroeste 0 1015.5 -- 82
2020-08-22 10:00:00 23.3 6 Oeste 16 Sudoeste 0.1 1015.3 -- 91
2020-08-22 09:00:00 23 5 Sudoeste 14 Sudoeste 0 1015.1 -- 90
2020-08-22 08:00:00 22.8 2 Sudoeste 12 Sudoeste 0 1014.7 -- 90
2020-08-22 07:00:00 22.4 3 Sur 8 Sur 0 1014.5 -- 90
2020-08-22 06:00:00 22.4 0 Calma 5 Oeste 0 1014.1 -- 90
2020-08-22 05:00:00 22.8 3 Este 7 Este 0 1014.4 -- 90
2020-08-22 04:00:00 23 4 Sudoeste 17 Norte 0 1014.1 -- 91
2020-08-22 03:00:00 23.1 12 Nordeste 25 Nordeste 0 1014.9 -- 91
2020-08-22 02:00:00 23 17 Nordeste 24 Nordeste 0 1015 -- 90
2020-08-22 01:00:00 23.2 21 Nordeste 27 Nordeste 0 1014.7 -- 90
2020-08-22 00:00:00 23.3 18 Nordeste 27 Nordeste 0 1015.3 -- 89
2020-08-21 23:00:00 23.6 19 Nordeste 26 Nordeste 0 1015.4 -- 87
2020-08-21 22:00:00 23.7 15 Nordeste 22 Nordeste 0 1014.7 -- 86
2020-08-21 21:00:00 23.8 12 Nordeste 18 Nordeste 0 1014 -- 81
2020-08-21 20:00:00 24.9 13 Nordeste 18 Nordeste 0 1013.1 -- 74
2020-08-21 19:00:00 26.4 14 Nordeste 21 Este 0 1013.1 -- 68
2020-08-21 18:00:00 26.4 17 Nordeste 24 Nordeste 0 1012.7 -- 66
2020-08-21 17:00:00 27.5 16 Nordeste 22 Nordeste 0 1012.2 -- 64
2020-08-21 16:00:00 27.3 16 Nordeste 22 Nordeste 0 1012.4 -- 64
2020-08-21 15:00:00 26.5 18 Nordeste 26 Nordeste 0 1012.7 -- 67
2020-08-21 14:00:00 26.5 19 Nordeste 25 Nordeste 0 1012.3 -- 67
2020-08-21 13:00:00 26.1 18 Nordeste 23 Nordeste 0 1012.6 -- 67
2020-08-21 12:00:00 26.1 8 Nordeste 14 Nordeste 0 1012.3 -- 67
2020-08-21 11:00:00 24 4 Norte 10 Norte 0 1012.2 -- 72
2020-08-21 10:00:00 24.1 2 Norte 9 Este 0 1011.6 -- 71
2020-08-21 09:00:00 22.7 2 Sur 7 Sur 0 1011.3 -- 71
2020-08-21 08:00:00 20.1 5 Sur 8 Sur 0 1010.9 -- 73
2020-08-21 07:00:00 20.1 4 Sur 9 Sudeste 0 1010.5 -- 80
2020-08-21 06:00:00 20.5 4 Sur 10 Sudeste 0 1010.4 -- 81
2020-08-21 05:00:00 20.8 4 Sur 7 Sur 0 1010.1 -- 79
2020-08-21 04:00:00 20.9 4 Sur 11 Sur 0 1010.3 -- 78
2020-08-21 03:00:00 21.2 5 Sur 9 Sur 0 1010.6 -- 81
2020-08-21 02:00:00 22 0 Calma 8 Norte 0 1010.6 -- 88
2020-08-21 01:00:00 22.5 3 Norte 11 Nordeste 0 1010.6 -- 90
2020-08-21 00:00:00 23 4 Este 16 Nordeste 0 1010.5 -- 90